Wildersville, TN (38388)

6:53 AM CST on February 10, 2016 (GMT -0600)
School House Road | | Change Station
CLOSE
Current Station
Personal Weather Station
Location: Yuma, TN
Elevation: 492 ft
Nearby Weather Stations

Elev 492 ft 35.85 °N, 88.34 °W | Updated 15 seconds ago

Clear
Clear
15.6 °F
Feels Like 16 °F
N
2.2
Wind Variable Wind from South
Gusts 2.3 mph

Today
High -- | Low -- °F
--% Chance of Precip.
Yesterday
High -- | Low -- °F
Precip. -- in
Pressure 30.22 in
Visibility 10.0 miles
Clouds Clear
Windchill 16 °F
Dew Point 11 °F
Humidity 83%
Rainfall 0.00 in
Snow Depth Not available.
6:46 AM 5:29 PM
Waxing Crescent, 5% visible
METAR KMKL 101153Z AUTO 29007KT 10SM CLR M07/M13 A3021 RMK AO2 SLP234 T10671128 11050 21067 53014
Pressure 30.22 in
Visibility 10.0 miles
Clouds Clear
Windchill 16 °F
Dew Point 11 °F
Humidity 83%
Rainfall 0.00 in
Snow Depth Not available.
6:46 AM 5:29 PM
Waxing Crescent, 5% visible
METAR KMKL 101153Z AUTO 29007KT 10SM CLR M07/M13 A3021 RMK AO2 SLP234 T10671128 11050 21067 53014

10-Day Weather Forecast

Almanac

Astronomy

Feb. 10, 2016 Rise Set
Actual Time
Civil Twilight
Nautical Twilight
Astronomical Twilight
Moon
Length of Visible Light
Length of Day
Tomorrow will be .
, % of the Moon is Illuminated

Today's Extremes

State Highs State Lows

Community

WunderPhotos

Upload Photos

1,891,837 photos uploaded!

WunderBlog® & News

Nearby

Air Quality

  Air Quality AQ Index Pollutant
Not available.

Snow Depth

Station Depth Elevation

Earthquake Activity

City Distance Mag. Time & Date
Minimum magnitude displayed is 2.5.

Coastal Water Temperatures

Place Temperature

Stations

Nearby Weather Stations

Station Location Temp. Windchill Dew Point Humidity Wind Precip. Elev Updated Type
                   

Watches & Warnings

There are currently no watches in effect.